sensor_id;sensor_type;location;lat;lon;timestamp;temperature;humidity
4896;DHT22;2463;49.948;8.472;2022-12-20T00:01:26;2.90;99.90
4896;DHT22;2463;49.948;8.472;2022-12-20T00:03:55;2.90;99.90
4896;DHT22;2463;49.948;8.472;2022-12-20T00:06:22;3.00;99.90
4896;DHT22;2463;49.948;8.472;2022-12-20T00:08:57;3.00;99.90
4896;DHT22;2463;49.948;8.472;2022-12-20T00:11:25;3.00;99.90
4896;DHT22;2463;49.948;8.472;2022-12-20T00:13:52;2.90;99.90
4896;DHT22;2463;49.948;8.472;2022-12-20T00:16:22;2.90;99.90
4896;DHT22;2463;49.948;8.472;2022-12-20T00:18:57;3.00;99.90
4896;DHT22;2463;49.948;8.472;2022-12-20T00:21:25;3.00;99.90
4896;DHT22;2463;49.948;8.472;2022-12-20T00:23:54;4.10;99.90
4896;DHT22;2463;49.948;8.472;2022-12-20T00:26:23;3.00;99.90
4896;DHT22;2463;49.948;8.472;2022-12-20T00:28:51;3.00;99.90
4896;DHT22;2463;49.948;8.472;2022-12-20T00:31:20;3.00;99.90
4896;DHT22;2463;49.948;8.472;2022-12-20T00:33:50;3.00;99.90
4896;DHT22;2463;49.948;8.472;2022-12-20T00:36:18;3.00;99.90
4896;DHT22;2463;49.948;8.472;2022-12-20T00:38:47;3.00;99.90
4896;DHT22;2463;49.948;8.472;2022-12-20T00:41:16;3.00;99.90
4896;DHT22;2463;49.948;8.472;2022-12-20T00:43:43;3.00;99.90
4896;DHT22;2463;49.948;8.472;2022-12-20T00:46:11;3.00;99.90
4896;DHT22;2463;49.948;8.472;2022-12-20T00:48:38;3.00;99.90
4896;DHT22;2463;49.948;8.472;2022-12-20T00:51:14;3.00;99.90
4896;DHT22;2463;49.948;8.472;2022-12-20T00:53:41;3.00;99.90
4896;DHT22;2463;49.948;8.472;2022-12-20T00:56:09;3.00;99.90
4896;DHT22;2463;49.948;8.472;2022-12-20T00:58:37;3.00;99.90
4896;DHT22;2463;49.948;8.472;2022-12-20T01:01:20;3.00;99.90
4896;DHT22;2463;49.948;8.472;2022-12-20T01:03:49;2.90;99.90
4896;DHT22;2463;49.948;8.472;2022-12-20T01:06:17;2.80;99.90
4896;DHT22;2463;49.948;8.472;2022-12-20T01:08:43;2.80;99.90
4896;DHT22;2463;49.948;8.472;2022-12-20T01:11:19;2.80;99.90
4896;DHT22;2463;49.948;8.472;2022-12-20T01:13:49;2.80;99.90
4896;DHT22;2463;49.948;8.472;2022-12-20T01:16:20;2.80;99.90
4896;DHT22;2463;49.948;8.472;2022-12-20T01:18:48;2.80;99.90
4896;DHT22;2463;49.948;8.472;2022-12-20T01:21:16;2.80;99.90
4896;DHT22;2463;49.948;8.472;2022-12-20T01:23:44;2.80;99.90
4896;DHT22;2463;49.948;8.472;2022-12-20T01:26:13;2.80;99.90
4896;DHT22;2463;49.948;8.472;2022-12-20T01:28:42;2.80;99.90
4896;DHT22;2463;49.948;8.472;2022-12-20T01:31:14;2.80;99.90
4896;DHT22;2463;49.948;8.472;2022-12-20T01:33:42;2.80;99.90
4896;DHT22;2463;49.948;8.472;2022-12-20T01:36:18;2.70;99.90
4896;DHT22;2463;49.948;8.472;2022-12-20T01:38:45;2.80;99.90
4896;DHT22;2463;49.948;8.472;2022-12-20T01:41:20;2.80;99.90
4896;DHT22;2463;49.948;8.472;2022-12-20T01:44:05;2.80;99.90
4896;DHT22;2463;49.948;8.472;2022-12-20T01:46:52;2.90;99.90
4896;DHT22;2463;49.948;8.472;2022-12-20T01:49:31;2.90;99.90
4896;DHT22;2463;49.948;8.472;2022-12-20T01:55:16;2.90;99.90
4896;DHT22;2463;49.948;8.472;2022-12-20T01:57:50;2.90;99.90
4896;DHT22;2463;49.948;8.472;2022-12-20T02:00:18;3.00;99.90
4896;DHT22;2463;49.948;8.472;2022-12-20T02:02:47;3.00;99.90
4896;DHT22;2463;49.948;8.472;2022-12-20T02:05:16;3.00;99.90
4896;DHT22;2463;49.948;8.472;2022-12-20T02:07:45;3.00;99.90
4896;DHT22;2463;49.948;8.472;2022-12-20T02:10:14;3.00;99.90
4896;DHT22;2463;49.948;8.472;2022-12-20T02:12:43;3.00;99.90
4896;DHT22;2463;49.948;8.472;2022-12-20T02:15:38;3.00;99.90
4896;DHT22;2463;49.948;8.472;2022-12-20T02:18:28;3.00;99.90
4896;DHT22;2463;49.948;8.472;2022-12-20T02:27:09;2.90;99.90
4896;DHT22;2463;49.948;8.472;2022-12-20T02:30:12;2.80;99.90
4896;DHT22;2463;49.948;8.472;2022-12-20T02:33:15;2.80;99.90
4896;DHT22;2463;49.948;8.472;2022-12-20T02:35:42;2.80;99.90
4896;DHT22;2463;49.948;8.472;2022-12-20T02:38:31;2.90;99.90
4896;DHT22;2463;49.948;8.472;2022-12-20T02:43:30;2.80;99.90
4896;DHT22;2463;49.948;8.472;2022-12-20T02:46:18;2.70;99.90
4896;DHT22;2463;49.948;8.472;2022-12-20T02:48:46;2.70;99.90
4896;DHT22;2463;49.948;8.472;2022-12-20T02:51:15;2.70;99.90
4896;DHT22;2463;49.948;8.472;2022-12-20T02:53:42;2.80;99.90
4896;DHT22;2463;49.948;8.472;2022-12-20T02:56:21;2.80;99.90
4896;DHT22;2463;49.948;8.472;2022-12-20T02:58:56;2.80;99.90
4896;DHT22;2463;49.948;8.472;2022-12-20T03:01:29;2.50;99.90
4896;DHT22;2463;49.948;8.472;2022-12-20T03:03:57;2.50;99.90
4896;DHT22;2463;49.948;8.472;2022-12-20T03:06:24;2.50;99.90
4896;DHT22;2463;49.948;8.472;2022-12-20T03:08:51;2.50;99.90
4896;DHT22;2463;49.948;8.472;2022-12-20T03:11:18;2.60;99.90
4896;DHT22;2463;49.948;8.472;2022-12-20T03:13:45;2.70;99.90
4896;DHT22;2463;49.948;8.472;2022-12-20T03:16:12;2.70;99.90
4896;DHT22;2463;49.948;8.472;2022-12-20T03:18:39;2.80;99.90
4896;DHT22;2463;49.948;8.472;2022-12-20T03:21:06;2.80;99.90
4896;DHT22;2463;49.948;8.472;2022-12-20T03:23:33;2.80;99.90
4896;DHT22;2463;49.948;8.472;2022-12-20T03:25:59;2.80;99.90
4896;DHT22;2463;49.948;8.472;2022-12-20T03:28:26;2.90;99.90
4896;DHT22;2463;49.948;8.472;2022-12-20T03:30:53;2.90;99.90
4896;DHT22;2463;49.948;8.472;2022-12-20T03:33:20;2.90;99.90
4896;DHT22;2463;49.948;8.472;2022-12-20T03:35:47;2.90;99.90
4896;DHT22;2463;49.948;8.472;2022-12-20T03:38:14;2.90;99.90
4896;DHT22;2463;49.948;8.472;2022-12-20T03:40:40;3.00;99.90
4896;DHT22;2463;49.948;8.472;2022-12-20T03:43:07;3.00;99.90
4896;DHT22;2463;49.948;8.472;2022-12-20T03:45:34;3.00;99.90
4896;DHT22;2463;49.948;8.472;2022-12-20T03:48:00;2.90;99.90
4896;DHT22;2463;49.948;8.472;2022-12-20T03:50:27;2.80;99.90
4896;DHT22;2463;49.948;8.472;2022-12-20T03:52:54;2.90;99.90
4896;DHT22;2463;49.948;8.472;2022-12-20T03:55:20;2.90;99.90
4896;DHT22;2463;49.948;8.472;2022-12-20T03:57:47;2.90;99.90
4896;DHT22;2463;49.948;8.472;2022-12-20T04:00:14;3.00;99.90
4896;DHT22;2463;49.948;8.472;2022-12-20T04:02:41;3.00;99.90
4896;DHT22;2463;49.948;8.472;2022-12-20T04:05:08;3.00;99.90
4896;DHT22;2463;49.948;8.472;2022-12-20T04:07:35;3.10;99.90
4896;DHT22;2463;49.948;8.472;2022-12-20T04:10:03;3.10;99.90
4896;DHT22;2463;49.948;8.472;2022-12-20T04:12:30;3.10;99.90
4896;DHT22;2463;49.948;8.472;2022-12-20T04:14:56;3.10;99.90
4896;DHT22;2463;49.948;8.472;2022-12-20T04:17:23;3.10;99.90
4896;DHT22;2463;49.948;8.472;2022-12-20T04:19:50;3.10;99.90
4896;DHT22;2463;49.948;8.472;2022-12-20T04:22:16;3.10;99.90
4896;DHT22;2463;49.948;8.472;2022-12-20T04:24:43;3.10;99.90
4896;DHT22;2463;49.948;8.472;2022-12-20T04:27:10;3.00;99.90
4896;DHT22;2463;49.948;8.472;2022-12-20T04:29:36;3.10;99.90
4896;DHT22;2463;49.948;8.472;2022-12-20T04:32:03;3.10;99.90
4896;DHT22;2463;49.948;8.472;2022-12-20T04:34:30;3.10;99.90
4896;DHT22;2463;49.948;8.472;2022-12-20T04:36:57;3.10;99.90
4896;DHT22;2463;49.948;8.472;2022-12-20T04:39:23;3.00;99.90
4896;DHT22;2463;49.948;8.472;2022-12-20T04:41:50;2.90;99.90
4896;DHT22;2463;49.948;8.472;2022-12-20T04:44:16;2.90;99.90
4896;DHT22;2463;49.948;8.472;2022-12-20T04:46:43;2.90;99.90
4896;DHT22;2463;49.948;8.472;2022-12-20T04:49:10;2.90;99.90
4896;DHT22;2463;49.948;8.472;2022-12-20T04:51:37;3.00;99.90
4896;DHT22;2463;49.948;8.472;2022-12-20T04:54:03;3.00;99.90
4896;DHT22;2463;49.948;8.472;2022-12-20T04:56:30;3.00;99.90
4896;DHT22;2463;49.948;8.472;2022-12-20T04:58:57;3.10;99.90
4896;DHT22;2463;49.948;8.472;2022-12-20T05:01:25;3.10;99.90
4896;DHT22;2463;49.948;8.472;2022-12-20T05:03:52;3.10;99.90
4896;DHT22;2463;49.948;8.472;2022-12-20T05:06:19;3.10;99.90
4896;DHT22;2463;49.948;8.472;2022-12-20T05:08:46;3.10;99.90
4896;DHT22;2463;49.948;8.472;2022-12-20T05:11:13;3.20;99.90
4896;DHT22;2463;49.948;8.472;2022-12-20T05:13:40;3.20;99.90
4896;DHT22;2463;49.948;8.472;2022-12-20T05:16:07;3.20;99.90
4896;DHT22;2463;49.948;8.472;2022-12-20T05:18:33;3.20;99.90
4896;DHT22;2463;49.948;8.472;2022-12-20T05:21:01;3.20;99.90
4896;DHT22;2463;49.948;8.472;2022-12-20T05:23:47;3.20;99.90
4896;DHT22;2463;49.948;8.472;2022-12-20T05:26:35;3.30;99.90
4896;DHT22;2463;49.948;8.472;2022-12-20T05:29:04;3.30;99.90
4896;DHT22;2463;49.948;8.472;2022-12-20T05:31:31;3.30;99.90
4896;DHT22;2463;49.948;8.472;2022-12-20T05:33:58;3.30;99.90
4896;DHT22;2463;49.948;8.472;2022-12-20T05:36:24;3.30;99.90
4896;DHT22;2463;49.948;8.472;2022-12-20T05:38:51;3.30;99.90
4896;DHT22;2463;49.948;8.472;2022-12-20T05:41:25;3.30;99.90
4896;DHT22;2463;49.948;8.472;2022-12-20T05:43:52;3.30;99.90
4896;DHT22;2463;49.948;8.472;2022-12-20T05:46:18;3.30;99.90
4896;DHT22;2463;49.948;8.472;2022-12-20T05:48:45;3.40;99.90
4896;DHT22;2463;49.948;8.472;2022-12-20T05:51:12;3.40;99.90
4896;DHT22;2463;49.948;8.472;2022-12-20T05:53:38;3.40;99.90
4896;DHT22;2463;49.948;8.472;2022-12-20T05:56:05;3.30;99.90
4896;DHT22;2463;49.948;8.472;2022-12-20T05:58:32;3.20;99.90
4896;DHT22;2463;49.948;8.472;2022-12-20T06:01:01;3.10;99.90
4896;DHT22;2463;49.948;8.472;2022-12-20T06:03:28;3.10;99.90
4896;DHT22;2463;49.948;8.472;2022-12-20T06:05:55;3.10;99.90
4896;DHT22;2463;49.948;8.472;2022-12-20T06:08:22;3.10;99.90
4896;DHT22;2463;49.948;8.472;2022-12-20T06:10:50;3.10;99.90
4896;DHT22;2463;49.948;8.472;2022-12-20T06:13:16;3.10;99.90
4896;DHT22;2463;49.948;8.472;2022-12-20T06:15:43;3.00;99.90
4896;DHT22;2463;49.948;8.472;2022-12-20T06:18:10;2.90;99.90
4896;DHT22;2463;49.948;8.472;2022-12-20T06:20:37;2.90;99.90
4896;DHT22;2463;49.948;8.472;2022-12-20T06:23:04;3.00;99.90
4896;DHT22;2463;49.948;8.472;2022-12-20T06:25:31;3.10;99.90
4896;DHT22;2463;49.948;8.472;2022-12-20T06:27:58;3.10;99.90
4896;DHT22;2463;49.948;8.472;2022-12-20T06:30:25;3.10;99.90
4896;DHT22;2463;49.948;8.472;2022-12-20T06:32:59;3.20;99.90
4896;DHT22;2463;49.948;8.472;2022-12-20T06:35:26;3.20;99.90
4896;DHT22;2463;49.948;8.472;2022-12-20T06:37:52;3.20;99.90
4896;DHT22;2463;49.948;8.472;2022-12-20T06:40:19;3.10;99.90
4896;DHT22;2463;49.948;8.472;2022-12-20T06:42:46;3.20;99.90
4896;DHT22;2463;49.948;8.472;2022-12-20T06:45:13;3.20;99.90
4896;DHT22;2463;49.948;8.472;2022-12-20T06:47:39;3.20;99.90
4896;DHT22;2463;49.948;8.472;2022-12-20T06:50:07;3.20;99.90
4896;DHT22;2463;49.948;8.472;2022-12-20T06:52:33;3.20;99.90
4896;DHT22;2463;49.948;8.472;2022-12-20T06:55:00;3.30;99.90
4896;DHT22;2463;49.948;8.472;2022-12-20T06:57:27;3.30;99.90
4896;DHT22;2463;49.948;8.472;2022-12-20T06:59:54;3.30;99.90
4896;DHT22;2463;49.948;8.472;2022-12-20T07:02:20;3.30;99.90
4896;DHT22;2463;49.948;8.472;2022-12-20T07:04:49;3.40;99.90
4896;DHT22;2463;49.948;8.472;2022-12-20T07:07:16;3.40;99.90
4896;DHT22;2463;49.948;8.472;2022-12-20T07:09:43;3.40;99.90
4896;DHT22;2463;49.948;8.472;2022-12-20T07:12:10;3.40;99.90
4896;DHT22;2463;49.948;8.472;2022-12-20T07:14:37;3.40;99.90
4896;DHT22;2463;49.948;8.472;2022-12-20T07:17:05;3.40;99.90
4896;DHT22;2463;49.948;8.472;2022-12-20T07:19:34;3.40;99.90
4896;DHT22;2463;49.948;8.472;2022-12-20T07:22:03;3.30;99.90
4896;DHT22;2463;49.948;8.472;2022-12-20T07:24:31;3.30;99.90
4896;DHT22;2463;49.948;8.472;2022-12-20T07:26:58;3.30;99.90
4896;DHT22;2463;49.948;8.472;2022-12-20T07:29:25;3.40;99.90
4896;DHT22;2463;49.948;8.472;2022-12-20T07:31:52;3.40;99.90
4896;DHT22;2463;49.948;8.472;2022-12-20T07:34:18;3.40;99.90
4896;DHT22;2463;49.948;8.472;2022-12-20T07:36:45;3.40;99.90
4896;DHT22;2463;49.948;8.472;2022-12-20T07:39:12;3.40;99.90
4896;DHT22;2463;49.948;8.472;2022-12-20T07:41:40;3.40;99.90
4896;DHT22;2463;49.948;8.472;2022-12-20T07:44:06;3.50;99.90
4896;DHT22;2463;49.948;8.472;2022-12-20T07:46:33;3.50;99.90
4896;DHT22;2463;49.948;8.472;2022-12-20T07:49:00;3.60;99.90
4896;DHT22;2463;49.948;8.472;2022-12-20T07:51:30;3.60;99.90
4896;DHT22;2463;49.948;8.472;2022-12-20T07:54:10;3.60;99.90
4896;DHT22;2463;49.948;8.472;2022-12-20T07:56:41;3.60;99.90
4896;DHT22;2463;49.948;8.472;2022-12-20T07:59:10;3.60;99.90
4896;DHT22;2463;49.948;8.472;2022-12-20T08:01:39;3.60;99.90
4896;DHT22;2463;49.948;8.472;2022-12-20T08:04:12;3.60;99.90
4896;DHT22;2463;49.948;8.472;2022-12-20T08:06:41;3.60;99.90
4896;DHT22;2463;49.948;8.472;2022-12-20T08:09:09;3.70;99.90
4896;DHT22;2463;49.948;8.472;2022-12-20T08:11:40;3.70;99.90
4896;DHT22;2463;49.948;8.472;2022-12-20T08:14:09;3.70;99.90
4896;DHT22;2463;49.948;8.472;2022-12-20T08:16:36;3.70;99.90
4896;DHT22;2463;49.948;8.472;2022-12-20T08:19:03;3.70;99.90
4896;DHT22;2463;49.948;8.472;2022-12-20T08:21:30;3.70;99.90
4896;DHT22;2463;49.948;8.472;2022-12-20T08:23:56;3.80;99.90
4896;DHT22;2463;49.948;8.472;2022-12-20T08:26:23;3.90;99.90
4896;DHT22;2463;49.948;8.472;2022-12-20T08:28:50;4.10;99.90
4896;DHT22;2463;49.948;8.472;2022-12-20T08:31:17;4.20;99.90
4896;DHT22;2463;49.948;8.472;2022-12-20T08:33:44;4.40;99.90
4896;DHT22;2463;49.948;8.472;2022-12-20T08:36:12;4.60;99.90
4896;DHT22;2463;49.948;8.472;2022-12-20T08:38:39;4.60;99.90
4896;DHT22;2463;49.948;8.472;2022-12-20T08:41:08;4.60;99.90
4896;DHT22;2463;49.948;8.472;2022-12-20T08:43:36;4.50;99.90
4896;DHT22;2463;49.948;8.472;2022-12-20T08:46:03;4.50;99.90
4896;DHT22;2463;49.948;8.472;2022-12-20T08:48:31;4.50;99.90
4896;DHT22;2463;49.948;8.472;2022-12-20T08:51:01;4.50;99.90
4896;DHT22;2463;49.948;8.472;2022-12-20T08:53:28;4.50;99.90
4896;DHT22;2463;49.948;8.472;2022-12-20T08:56:10;4.50;99.90
4896;DHT22;2463;49.948;8.472;2022-12-20T08:58:38;4.60;99.90
4896;DHT22;2463;49.948;8.472;2022-12-20T09:01:07;4.60;99.90
4896;DHT22;2463;49.948;8.472;2022-12-20T09:03:35;4.50;99.90
4896;DHT22;2463;49.948;8.472;2022-12-20T09:06:10;4.50;99.90
4896;DHT22;2463;49.948;8.472;2022-12-20T09:08:39;4.50;99.90
4896;DHT22;2463;49.948;8.472;2022-12-20T09:11:11;4.50;99.90
4896;DHT22;2463;49.948;8.472;2022-12-20T09:13:39;4.50;99.90
4896;DHT22;2463;49.948;8.472;2022-12-20T09:16:11;4.60;99.90
4896;DHT22;2463;49.948;8.472;2022-12-20T09:18:38;4.60;99.90
4896;DHT22;2463;49.948;8.472;2022-12-20T09:21:06;4.70;99.90
4896;DHT22;2463;49.948;8.472;2022-12-20T09:23:34;4.80;99.90
4896;DHT22;2463;49.948;8.472;2022-12-20T09:26:06;4.80;99.90
4896;DHT22;2463;49.948;8.472;2022-12-20T09:28:34;4.90;99.90
4896;DHT22;2463;49.948;8.472;2022-12-20T09:31:03;5.00;99.90
4896;DHT22;2463;49.948;8.472;2022-12-20T09:33:31;5.00;99.90
4896;DHT22;2463;49.948;8.472;2022-12-20T09:35:58;5.10;99.90
4896;DHT22;2463;49.948;8.472;2022-12-20T09:38:26;5.10;99.90
4896;DHT22;2463;49.948;8.472;2022-12-20T09:40:57;5.20;99.90
4896;DHT22;2463;49.948;8.472;2022-12-20T09:43:24;5.20;99.90
4896;DHT22;2463;49.948;8.472;2022-12-20T09:45:53;5.30;99.90
4896;DHT22;2463;49.948;8.472;2022-12-20T09:48:29;5.20;99.90
4896;DHT22;2463;49.948;8.472;2022-12-20T09:59:21;5.40;99.90
4896;DHT22;2463;49.948;8.472;2022-12-20T10:01:49;5.40;99.90
4896;DHT22;2463;49.948;8.472;2022-12-20T10:04:26;5.40;99.90
4896;DHT22;2463;49.948;8.472;2022-12-20T10:07:05;5.40;99.90
4896;DHT22;2463;49.948;8.472;2022-12-20T10:16:13;5.50;99.90
4896;DHT22;2463;49.948;8.472;2022-12-20T10:18:35;5.40;99.90
4896;DHT22;2463;49.948;8.472;2022-12-20T10:21:17;5.40;99.90
4896;DHT22;2463;49.948;8.472;2022-12-20T10:24:09;5.40;99.90
4896;DHT22;2463;49.948;8.472;2022-12-20T10:26:37;5.40;99.90
4896;DHT22;2463;49.948;8.472;2022-12-20T10:29:04;5.50;99.90
4896;DHT22;2463;49.948;8.472;2022-12-20T10:31:31;5.50;99.90
4896;DHT22;2463;49.948;8.472;2022-12-20T10:33:57;5.50;99.90
4896;DHT22;2463;49.948;8.472;2022-12-20T10:36:31;5.60;99.90
4896;DHT22;2463;49.948;8.472;2022-12-20T10:39:06;5.60;99.90
4896;DHT22;2463;49.948;8.472;2022-12-20T10:46:56;5.70;99.90
4896;DHT22;2463;49.948;8.472;2022-12-20T10:49:32;5.70;99.90
4896;DHT22;2463;49.948;8.472;2022-12-20T10:54:36;5.80;99.90
4896;DHT22;2463;49.948;8.472;2022-12-20T10:57:24;5.90;99.90
4896;DHT22;2463;49.948;8.472;2022-12-20T10:59:57;5.90;99.90
4896;DHT22;2463;49.948;8.472;2022-12-20T11:02:32;6.00;99.90
4896;DHT22;2463;49.948;8.472;2022-12-20T11:07:51;6.00;99.90
4896;DHT22;2463;49.948;8.472;2022-12-20T11:10:38;6.10;99.90
4896;DHT22;2463;49.948;8.472;2022-12-20T11:13:05;6.10;99.90
4896;DHT22;2463;49.948;8.472;2022-12-20T11:15:33;6.10;99.90
4896;DHT22;2463;49.948;8.472;2022-12-20T11:18:12;6.20;99.90
4896;DHT22;2463;49.948;8.472;2022-12-20T11:23:22;6.30;99.90
4896;DHT22;2463;49.948;8.472;2022-12-20T11:31:25;6.40;99.90
4896;DHT22;2463;49.948;8.472;2022-12-20T11:34:15;6.50;99.90
4896;DHT22;2463;49.948;8.472;2022-12-20T11:36:55;6.60;99.90
4896;DHT22;2463;49.948;8.472;2022-12-20T11:39:53;6.60;99.90
4896;DHT22;2463;49.948;8.472;2022-12-20T11:51:03;6.70;99.90
4896;DHT22;2463;49.948;8.472;2022-12-20T11:56:21;6.80;99.90
4896;DHT22;2463;49.948;8.472;2022-12-20T12:02:20;6.80;99.90
4896;DHT22;2463;49.948;8.472;2022-12-20T12:04:58;6.90;99.90
4896;DHT22;2463;49.948;8.472;2022-12-20T12:07:31;6.90;99.90
4896;DHT22;2463;49.948;8.472;2022-12-20T12:12:49;7.10;99.90
4896;DHT22;2463;49.948;8.472;2022-12-20T12:15:29;7.20;99.90
4896;DHT22;2463;49.948;8.472;2022-12-20T12:18:19;7.20;99.90
4896;DHT22;2463;49.948;8.472;2022-12-20T12:25:58;7.40;99.90
4896;DHT22;2463;49.948;8.472;2022-12-20T12:28:27;7.50;99.90
4896;DHT22;2463;49.948;8.472;2022-12-20T12:31:08;7.50;99.90
4896;DHT22;2463;49.948;8.472;2022-12-20T12:33:42;7.50;99.90
4896;DHT22;2463;49.948;8.472;2022-12-20T12:36:50;7.40;99.90
4896;DHT22;2463;49.948;8.472;2022-12-20T12:39:38;7.40;99.90
4896;DHT22;2463;49.948;8.472;2022-12-20T12:42:26;7.40;99.90
4896;DHT22;2463;49.948;8.472;2022-12-20T12:45:02;7.30;99.90
4896;DHT22;2463;49.948;8.472;2022-12-20T12:47:42;7.30;99.90
4896;DHT22;2463;49.948;8.472;2022-12-20T12:50:32;7.30;99.90
4896;DHT22;2463;49.948;8.472;2022-12-20T12:53:15;7.30;99.90
4896;DHT22;2463;49.948;8.472;2022-12-20T12:55:48;7.30;99.90
4896;DHT22;2463;49.948;8.472;2022-12-20T12:58:30;7.30;99.90
4896;DHT22;2463;49.948;8.472;2022-12-20T13:01:00;7.30;99.90
4896;DHT22;2463;49.948;8.472;2022-12-20T13:11:31;7.50;99.90
4896;DHT22;2463;49.948;8.472;2022-12-20T13:16:44;7.60;99.90
4896;DHT22;2463;49.948;8.472;2022-12-20T13:19:35;7.70;99.90
4896;DHT22;2463;49.948;8.472;2022-12-20T13:27:23;7.90;99.90
4896;DHT22;2463;49.948;8.472;2022-12-20T13:38:02;7.90;99.90
4896;DHT22;2463;49.948;8.472;2022-12-20T13:46:39;8.00;99.90
4896;DHT22;2463;49.948;8.472;2022-12-20T13:51:17;8.00;99.90
4896;DHT22;2463;49.948;8.472;2022-12-20T13:54:02;8.00;99.90
4896;DHT22;2463;49.948;8.472;2022-12-20T13:56:38;8.10;99.90
4896;DHT22;2463;49.948;8.472;2022-12-20T13:59:26;8.00;99.90
4896;DHT22;2463;49.948;8.472;2022-12-20T14:02:01;8.00;99.90
4896;DHT22;2463;49.948;8.472;2022-12-20T14:04:44;8.00;99.90
4896;DHT22;2463;49.948;8.472;2022-12-20T14:07:14;8.00;99.90
4896;DHT22;2463;49.948;8.472;2022-12-20T14:09:45;8.00;99.90
4896;DHT22;2463;49.948;8.472;2022-12-20T14:12:13;8.00;99.90
4896;DHT22;2463;49.948;8.472;2022-12-20T14:14:50;8.10;99.90
4896;DHT22;2463;49.948;8.472;2022-12-20T14:17:24;8.10;99.90
4896;DHT22;2463;49.948;8.472;2022-12-20T14:22:41;8.00;99.90
4896;DHT22;2463;49.948;8.472;2022-12-20T14:25:15;7.90;99.90
4896;DHT22;2463;49.948;8.472;2022-12-20T14:27:43;7.80;99.90
4896;DHT22;2463;49.948;8.472;2022-12-20T14:30:30;7.80;99.90
4896;DHT22;2463;49.948;8.472;2022-12-20T14:32:57;7.70;99.90
4896;DHT22;2463;49.948;8.472;2022-12-20T14:35:25;7.70;99.90
4896;DHT22;2463;49.948;8.472;2022-12-20T14:37:59;7.60;99.90
4896;DHT22;2463;49.948;8.472;2022-12-20T14:40:28;7.60;99.90
4896;DHT22;2463;49.948;8.472;2022-12-20T14:42:56;7.60;99.90
4896;DHT22;2463;49.948;8.472;2022-12-20T14:45:25;7.60;99.90
4896;DHT22;2463;49.948;8.472;2022-12-20T14:48:02;7.60;99.90
4896;DHT22;2463;49.948;8.472;2022-12-20T14:50:37;7.50;99.90
4896;DHT22;2463;49.948;8.472;2022-12-20T14:53:16;7.50;99.90
4896;DHT22;2463;49.948;8.472;2022-12-20T14:55:44;7.40;99.90
4896;DHT22;2463;49.948;8.472;2022-12-20T14:58:32;7.40;99.90
4896;DHT22;2463;49.948;8.472;2022-12-20T15:01:20;7.40;99.90
4896;DHT22;2463;49.948;8.472;2022-12-20T15:03:52;7.30;99.90
4896;DHT22;2463;49.948;8.472;2022-12-20T15:08:57;7.20;99.90
4896;DHT22;2463;49.948;8.472;2022-12-20T15:11:24;7.10;99.90
4896;DHT22;2463;49.948;8.472;2022-12-20T15:13:52;7.10;99.90
4896;DHT22;2463;49.948;8.472;2022-12-20T15:16:24;7.10;99.90
4896;DHT22;2463;49.948;8.472;2022-12-20T15:18:59;7.00;99.90
4896;DHT22;2463;49.948;8.472;2022-12-20T15:21:38;7.00;99.90
4896;DHT22;2463;49.948;8.472;2022-12-20T15:24:15;6.90;99.90
4896;DHT22;2463;49.948;8.472;2022-12-20T15:26:44;6.90;99.90
4896;DHT22;2463;49.948;8.472;2022-12-20T15:29:21;6.80;99.90
4896;DHT22;2463;49.948;8.472;2022-12-20T15:31:50;6.80;99.90
4896;DHT22;2463;49.948;8.472;2022-12-20T15:34:23;6.80;99.90
4896;DHT22;2463;49.948;8.472;2022-12-20T15:36:52;6.80;99.90
4896;DHT22;2463;49.948;8.472;2022-12-20T15:39:19;6.60;99.90
4896;DHT22;2463;49.948;8.472;2022-12-20T15:41:48;6.60;99.90
4896;DHT22;2463;49.948;8.472;2022-12-20T15:44:18;6.60;99.90
4896;DHT22;2463;49.948;8.472;2022-12-20T15:46:45;6.50;99.90
4896;DHT22;2463;49.948;8.472;2022-12-20T15:49:14;6.60;99.90
4896;DHT22;2463;49.948;8.472;2022-12-20T15:51:41;6.60;99.90
4896;DHT22;2463;49.948;8.472;2022-12-20T15:54:28;6.50;99.90
4896;DHT22;2463;49.948;8.472;2022-12-20T15:56:57;6.50;99.90
4896;DHT22;2463;49.948;8.472;2022-12-20T15:59:24;6.50;99.90
4896;DHT22;2463;49.948;8.472;2022-12-20T16:02:22;6.50;99.90
4896;DHT22;2463;49.948;8.472;2022-12-20T16:04:50;6.50;99.90
4896;DHT22;2463;49.948;8.472;2022-12-20T16:07:18;6.40;99.90
4896;DHT22;2463;49.948;8.472;2022-12-20T16:09:45;6.40;99.90
4896;DHT22;2463;49.948;8.472;2022-12-20T16:12:25;6.40;99.90
4896;DHT22;2463;49.948;8.472;2022-12-20T16:14:53;6.40;99.90
4896;DHT22;2463;49.948;8.472;2022-12-20T16:17:21;6.40;99.90
4896;DHT22;2463;49.948;8.472;2022-12-20T16:19:48;6.30;99.90
4896;DHT22;2463;49.948;8.472;2022-12-20T16:22:16;6.30;99.90
4896;DHT22;2463;49.948;8.472;2022-12-20T16:24:44;6.30;99.90
4896;DHT22;2463;49.948;8.472;2022-12-20T16:27:12;6.30;99.90
4896;DHT22;2463;49.948;8.472;2022-12-20T16:29:38;6.20;99.90
4896;DHT22;2463;49.948;8.472;2022-12-20T16:32:15;6.10;99.90
4896;DHT22;2463;49.948;8.472;2022-12-20T16:34:42;6.10;99.90
4896;DHT22;2463;49.948;8.472;2022-12-20T16:37:09;6.00;99.90
4896;DHT22;2463;49.948;8.472;2022-12-20T16:39:40;6.00;99.90
4896;DHT22;2463;49.948;8.472;2022-12-20T16:42:18;6.00;99.90
4896;DHT22;2463;49.948;8.472;2022-12-20T16:44:52;6.00;99.90
4896;DHT22;2463;49.948;8.472;2022-12-20T16:47:19;6.00;99.90
4896;DHT22;2463;49.948;8.472;2022-12-20T16:49:45;6.00;99.90
4896;DHT22;2463;49.948;8.472;2022-12-20T16:52:20;6.00;99.90
4896;DHT22;2463;49.948;8.472;2022-12-20T16:54:47;6.10;99.90
4896;DHT22;2463;49.948;8.472;2022-12-20T16:57:15;6.10;99.90
4896;DHT22;2463;49.948;8.472;2022-12-20T16:59:41;6.10;99.90
4896;DHT22;2463;49.948;8.472;2022-12-20T17:02:22;6.10;99.90
4896;DHT22;2463;49.948;8.472;2022-12-20T17:04:51;6.10;99.90
4896;DHT22;2463;49.948;8.472;2022-12-20T17:07:17;6.00;99.90
4896;DHT22;2463;49.948;8.472;2022-12-20T17:09:44;6.00;99.90
4896;DHT22;2463;49.948;8.472;2022-12-20T17:12:19;6.00;99.90
4896;DHT22;2463;49.948;8.472;2022-12-20T17:14:47;6.00;99.90
4896;DHT22;2463;49.948;8.472;2022-12-20T17:17:14;6.00;99.90
4896;DHT22;2463;49.948;8.472;2022-12-20T17:19:41;6.00;99.90
4896;DHT22;2463;49.948;8.472;2022-12-20T17:22:10;6.00;99.90
4896;DHT22;2463;49.948;8.472;2022-12-20T17:24:55;6.00;99.90
4896;DHT22;2463;49.948;8.472;2022-12-20T17:27:21;6.00;99.90
4896;DHT22;2463;49.948;8.472;2022-12-20T17:29:48;6.00;99.90
4896;DHT22;2463;49.948;8.472;2022-12-20T17:32:18;6.00;99.90
4896;DHT22;2463;49.948;8.472;2022-12-20T17:34:46;6.00;99.90
4896;DHT22;2463;49.948;8.472;2022-12-20T17:37:13;6.00;99.90
4896;DHT22;2463;49.948;8.472;2022-12-20T17:39:39;6.00;99.90
4896;DHT22;2463;49.948;8.472;2022-12-20T17:42:10;6.00;99.90
4896;DHT22;2463;49.948;8.472;2022-12-20T17:44:37;6.00;99.90
4896;DHT22;2463;49.948;8.472;2022-12-20T17:47:04;6.00;99.90
4896;DHT22;2463;49.948;8.472;2022-12-20T17:49:32;6.00;99.90
4896;DHT22;2463;49.948;8.472;2022-12-20T17:51:59;6.00;99.90
4896;DHT22;2463;49.948;8.472;2022-12-20T17:54:26;6.00;99.90
4896;DHT22;2463;49.948;8.472;2022-12-20T17:57:00;6.00;99.90
4896;DHT22;2463;49.948;8.472;2022-12-20T17:59:27;6.00;99.90
4896;DHT22;2463;49.948;8.472;2022-12-20T18:01:54;6.10;99.90
4896;DHT22;2463;49.948;8.472;2022-12-20T18:04:21;6.10;99.90
4896;DHT22;2463;49.948;8.472;2022-12-20T18:06:48;6.10;99.90
4896;DHT22;2463;49.948;8.472;2022-12-20T18:09:20;6.10;99.90
4896;DHT22;2463;49.948;8.472;2022-12-20T18:11:47;6.10;99.90
4896;DHT22;2463;49.948;8.472;2022-12-20T18:14:14;6.00;99.90
4896;DHT22;2463;49.948;8.472;2022-12-20T18:16:41;5.90;99.90
4896;DHT22;2463;49.948;8.472;2022-12-20T18:19:14;5.90;99.90
4896;DHT22;2463;49.948;8.472;2022-12-20T18:21:41;5.90;99.90
4896;DHT22;2463;49.948;8.472;2022-12-20T18:24:15;5.90;99.90
4896;DHT22;2463;49.948;8.472;2022-12-20T18:26:42;5.90;99.90